createdAt,value
2023-03-12T00:00:38.940Z,17.95
2023-03-12T00:01:38.984Z,17.94
2023-03-12T00:02:39.124Z,17.94
2023-03-12T00:03:39.083Z,17.94
2023-03-12T00:04:39.122Z,17.94
2023-03-12T00:05:39.176Z,17.94
2023-03-12T00:06:39.231Z,17.94
2023-03-12T00:07:39.268Z,17.94
2023-03-12T00:08:39.305Z,17.94
2023-03-12T00:09:39.384Z,17.94
2023-03-12T00:10:39.419Z,17.95
2023-03-12T00:11:39.496Z,17.94
2023-03-12T00:12:39.690Z,17.94
2023-03-12T00:13:38.768Z,17.94
2023-03-12T00:14:39.672Z,17.93
2023-03-12T00:15:39.920Z,17.94
2023-03-12T00:16:38.984Z,17.94
2023-03-12T00:17:40.971Z,17.94
2023-03-12T00:18:40.210Z,17.93
2023-03-12T00:19:40.258Z,17.93
2023-03-12T00:20:39.983Z,17.93
2023-03-12T00:21:40.372Z,17.93
2023-03-12T00:22:40.345Z,17.93
2023-03-12T00:23:40.209Z,17.93
2023-03-12T00:24:40.181Z,17.93
2023-03-12T00:25:40.282Z,17.94
2023-03-12T00:26:40.266Z,17.94
2023-03-12T00:27:39.309Z,17.94
2023-03-12T00:28:39.340Z,17.96
2023-03-12T00:29:40.376Z,17.97
2023-03-12T00:30:40.442Z,17.99
2023-03-12T00:31:40.549Z,18.00
2023-03-12T00:32:40.523Z,18.01
2023-03-12T00:33:40.549Z,18.02
2023-03-12T00:34:40.559Z,18.04
2023-03-12T00:35:40.620Z,18.04
2023-03-12T00:36:39.627Z,18.06
2023-03-12T00:37:39.669Z,18.07
2023-03-12T00:38:40.679Z,18.08
2023-03-12T00:39:39.699Z,18.10
2023-03-12T00:40:40.720Z,18.12
2023-03-12T00:41:40.737Z,18.13
2023-03-12T00:42:39.748Z,18.15
2023-03-12T00:43:40.773Z,18.18
2023-03-12T00:44:40.774Z,18.20
2023-03-12T00:45:39.781Z,18.22
2023-03-12T00:46:40.801Z,18.24
2023-03-12T00:47:39.793Z,18.26
2023-03-12T00:48:40.799Z,18.27
2023-03-12T00:49:40.837Z,18.29
2023-03-12T00:50:40.804Z,18.31
2023-03-12T00:51:39.824Z,18.33
2023-03-12T00:52:40.814Z,18.36
2023-03-12T00:53:40.818Z,18.37
2023-03-12T00:54:39.777Z,18.38
2023-03-12T00:55:40.784Z,18.40
2023-03-12T00:56:40.778Z,18.42
2023-03-12T00:57:40.791Z,18.43
2023-03-12T00:58:40.804Z,18.44
2023-03-12T00:59:40.792Z,18.46
2023-03-12T01:00:40.821Z,18.46
2023-03-12T01:01:40.798Z,18.46
2023-03-12T01:02:40.815Z,18.48
2023-03-12T01:03:40.839Z,18.48
2023-03-12T01:04:40.784Z,18.49
2023-03-12T01:05:40.837Z,18.49
2023-03-12T01:06:40.814Z,18.50
2023-03-12T01:07:40.836Z,18.51
2023-03-12T01:08:40.821Z,18.52
2023-03-12T01:09:40.820Z,18.53
2023-03-12T01:10:40.820Z,18.53
2023-03-12T01:11:39.822Z,18.54
2023-03-12T01:12:39.818Z,18.54
2023-03-12T01:13:40.834Z,18.56
2023-03-12T01:14:39.837Z,18.57
2023-03-12T01:15:40.843Z,18.57
2023-03-12T01:16:40.969Z,18.57
2023-03-12T01:17:40.851Z,18.58
2023-03-12T01:18:39.836Z,18.59
2023-03-12T01:19:40.825Z,18.59
2023-03-12T01:20:40.844Z,18.59
2023-03-12T01:21:40.857Z,18.60
2023-03-12T01:22:40.839Z,18.62
2023-03-12T01:23:40.829Z,18.62
2023-03-12T01:24:40.817Z,18.62
2023-03-12T01:25:40.860Z,18.62
2023-03-12T01:26:40.805Z,18.63
2023-03-12T01:27:40.825Z,18.65
2023-03-12T01:28:40.816Z,18.64
2023-03-12T01:29:40.802Z,18.66
2023-03-12T01:30:40.797Z,18.66
2023-03-12T01:31:40.856Z,18.66
2023-03-12T01:32:40.883Z,18.66
2023-03-12T01:33:40.788Z,18.67
2023-03-12T01:34:40.815Z,18.68
2023-03-12T01:35:40.957Z,18.67
2023-03-12T01:36:39.812Z,18.68
2023-03-12T01:37:40.824Z,18.69
2023-03-12T01:38:40.784Z,18.69
2023-03-12T01:39:40.795Z,18.69
2023-03-12T01:40:40.788Z,18.70
2023-03-12T01:41:40.807Z,18.71
2023-03-12T01:42:40.830Z,18.71
2023-03-12T01:43:40.836Z,18.72
2023-03-12T01:44:39.843Z,18.73
2023-03-12T01:45:41.024Z,18.73
2023-03-12T01:46:40.904Z,18.73
2023-03-12T01:47:40.909Z,18.74
2023-03-12T01:48:40.928Z,18.74
2023-03-12T01:49:39.930Z,18.74
2023-03-12T01:50:39.939Z,18.75
2023-03-12T01:51:40.975Z,18.75
2023-03-12T01:52:40.990Z,18.76
2023-03-12T01:53:41.102Z,18.76
2023-03-12T01:54:41.080Z,18.77
2023-03-12T01:55:40.087Z,18.78
2023-03-12T01:56:41.125Z,18.79
2023-03-12T01:57:40.159Z,18.78
2023-03-12T01:58:41.239Z,18.78
2023-03-12T01:59:41.255Z,18.79
2023-03-12T02:00:41.312Z,18.79
2023-03-12T02:01:40.333Z,18.80
2023-03-12T02:02:41.362Z,18.79
2023-03-12T02:03:40.478Z,18.80
2023-03-12T02:04:40.446Z,18.81
2023-03-12T02:05:40.458Z,18.82
2023-03-12T02:06:41.484Z,18.83
2023-03-12T02:07:41.513Z,18.82
2023-03-12T02:08:41.541Z,18.83
2023-03-12T02:09:40.626Z,18.83
2023-03-12T02:10:41.667Z,18.83
2023-03-12T02:11:41.733Z,18.82
2023-03-12T02:12:41.800Z,18.84
2023-03-12T02:13:41.858Z,18.84
2023-03-12T02:14:41.923Z,18.85
2023-03-12T02:15:40.956Z,18.85
2023-03-12T02:16:41.078Z,18.86
2023-03-12T02:17:42.086Z,18.86
2023-03-12T02:18:42.139Z,18.87
2023-03-12T02:19:41.193Z,18.87
2023-03-12T02:20:42.260Z,18.87
2023-03-12T02:21:41.316Z,18.87
2023-03-12T02:22:41.379Z,18.87
2023-03-12T02:23:41.550Z,18.86
2023-03-12T02:24:42.483Z,18.87
2023-03-12T02:25:41.558Z,18.86
2023-03-12T02:26:42.610Z,18.86
2023-03-12T02:27:42.665Z,18.87
2023-03-12T02:28:42.698Z,18.86
2023-03-12T02:29:41.738Z,18.88
2023-03-12T02:30:42.830Z,18.87
2023-03-12T02:31:42.933Z,18.87
2023-03-12T02:32:41.902Z,18.88
2023-03-12T02:33:42.926Z,18.89
2023-03-12T02:34:43.035Z,18.88
2023-03-12T02:35:42.072Z,18.89
2023-03-12T02:36:43.117Z,18.89
2023-03-12T02:37:43.156Z,18.89
2023-03-12T02:38:43.207Z,18.90
2023-03-12T02:39:43.308Z,18.90
2023-03-12T02:40:43.308Z,18.91
2023-03-12T02:41:43.393Z,18.90
2023-03-12T02:42:42.421Z,18.91
2023-03-12T02:43:42.492Z,18.90
2023-03-12T02:44:43.532Z,18.91
2023-03-12T02:45:43.628Z,18.91
2023-03-12T02:46:43.646Z,18.91
2023-03-12T02:47:42.693Z,18.91
2023-03-12T02:48:43.744Z,18.91
2023-03-12T02:49:43.812Z,18.91
2023-03-12T02:50:42.856Z,18.91
2023-03-12T02:51:43.901Z,18.91
2023-03-12T02:52:43.960Z,18.91
2023-03-12T02:53:43.994Z,18.91
2023-03-12T02:54:43.055Z,18.92
2023-03-12T02:55:44.126Z,18.92
2023-03-12T02:56:44.177Z,18.92
2023-03-12T02:57:44.244Z,18.92
2023-03-12T02:58:43.279Z,18.92
2023-03-12T02:59:44.340Z,18.92
2023-03-12T03:00:44.401Z,18.93
2023-03-12T03:01:43.791Z,18.92
2023-03-12T03:02:43.542Z,18.93
2023-03-12T03:03:44.614Z,18.94
2023-03-12T03:04:43.621Z,18.93
2023-03-12T03:05:44.683Z,18.94
2023-03-12T03:06:44.749Z,18.93
2023-03-12T03:07:44.789Z,18.92
2023-03-12T03:08:44.857Z,18.92
2023-03-12T03:09:44.899Z,18.93
2023-03-12T03:10:44.976Z,18.92
2023-03-12T03:11:45.014Z,18.93
2023-03-12T03:12:44.076Z,18.94
2023-03-12T03:13:45.149Z,18.94
2023-03-12T03:14:44.190Z,18.94
2023-03-12T03:15:45.250Z,18.94
2023-03-12T03:16:45.299Z,18.94
2023-03-12T03:17:45.369Z,18.94
2023-03-12T03:18:45.404Z,18.95
2023-03-12T03:19:44.466Z,18.95
2023-03-12T03:20:45.543Z,18.95
2023-03-12T03:21:45.578Z,18.95
2023-03-12T03:22:45.628Z,18.96
2023-03-12T03:23:44.683Z,18.96
2023-03-12T03:24:45.748Z,18.97
2023-03-12T03:25:45.806Z,18.97
2023-03-12T03:26:45.843Z,18.97
2023-03-12T03:27:45.911Z,18.98
2023-03-12T03:28:45.950Z,18.98
2023-03-12T03:29:46.063Z,18.99
2023-03-12T03:30:45.074Z,18.99
2023-03-12T03:31:46.101Z,18.99
2023-03-12T03:32:46.222Z,18.99
2023-03-12T03:33:46.208Z,19.01
2023-03-12T03:34:46.259Z,19.00
2023-03-12T03:35:46.336Z,19.01
2023-03-12T03:36:46.336Z,19.02
2023-03-12T03:37:46.374Z,19.02
2023-03-12T03:38:46.412Z,19.02
2023-03-12T03:39:46.465Z,19.03
2023-03-12T03:40:46.501Z,19.03
2023-03-12T03:41:45.536Z,19.04
2023-03-12T03:42:46.596Z,19.05
2023-03-12T03:43:46.625Z,19.05
2023-03-12T03:44:46.677Z,19.06
2023-03-12T03:45:46.781Z,19.06
2023-03-12T03:46:46.771Z,19.07
2023-03-12T03:47:45.803Z,19.07
2023-03-12T03:48:46.839Z,19.07
2023-03-12T03:49:46.884Z,19.07
2023-03-12T03:50:46.930Z,19.07
2023-03-12T03:51:46.988Z,19.07
2023-03-12T03:52:47.015Z,19.08
2023-03-12T03:53:47.057Z,19.08
2023-03-12T03:54:47.106Z,19.09
2023-03-12T03:55:47.165Z,19.09
2023-03-12T03:56:47.205Z,19.09
2023-03-12T03:57:47.251Z,19.09
2023-03-12T03:58:47.303Z,19.11
2023-03-12T03:59:47.357Z,19.10
2023-03-12T04:00:47.391Z,19.09
2023-03-12T04:01:47.453Z,19.09
2023-03-12T04:02:47.470Z,19.08
2023-03-12T04:03:47.517Z,19.09
2023-03-12T04:04:47.557Z,19.10
2023-03-12T04:05:47.650Z,19.10
2023-03-12T04:06:46.660Z,19.10
2023-03-12T04:07:47.701Z,19.10
2023-03-12T04:08:46.733Z,19.10
2023-03-12T04:09:47.776Z,19.10
2023-03-12T04:10:46.807Z,19.10
2023-03-12T04:11:47.874Z,19.10
2023-03-12T04:12:47.902Z,19.10
2023-03-12T04:13:47.938Z,19.10
2023-03-12T04:14:47.971Z,19.10
2023-03-12T04:15:47.094Z,19.10
2023-03-12T04:16:47.057Z,19.09
2023-03-12T04:17:48.232Z,19.09
2023-03-12T04:18:48.132Z,19.09
2023-03-12T04:19:47.166Z,19.10
2023-03-12T04:20:48.199Z,19.10
2023-03-12T04:21:48.498Z,19.09
2023-03-12T04:22:48.341Z,19.10
2023-03-12T04:23:48.346Z,19.10
2023-03-12T04:24:48.373Z,19.11
2023-03-12T04:25:48.401Z,19.10
2023-03-12T04:26:48.446Z,19.11
2023-03-12T04:27:48.509Z,19.11
2023-03-12T04:28:48.522Z,19.11
2023-03-12T04:29:48.561Z,19.12
2023-03-12T04:30:48.599Z,19.12
2023-03-12T04:31:47.695Z,19.12
2023-03-12T04:32:48.703Z,19.12
2023-03-12T04:33:48.734Z,19.13
2023-03-12T04:34:47.739Z,19.11
2023-03-12T04:35:47.799Z,19.13
2023-03-12T04:36:48.791Z,19.13
2023-03-12T04:37:48.821Z,19.13
2023-03-12T04:38:48.884Z,19.14
2023-03-12T04:39:47.894Z,19.14
2023-03-12T04:40:48.926Z,19.13
2023-03-12T04:41:48.980Z,19.13
2023-03-12T04:42:48.005Z,19.13
2023-03-12T04:43:49.026Z,19.13
2023-03-12T04:44:48.063Z,19.14
2023-03-12T04:45:49.111Z,19.14
2023-03-12T04:46:49.170Z,19.14
2023-03-12T04:47:49.178Z,19.13
2023-03-12T04:48:48.197Z,19.13
2023-03-12T04:49:49.285Z,19.13
2023-03-12T04:50:49.294Z,19.13
2023-03-12T04:51:49.330Z,19.13
2023-03-12T04:52:48.365Z,19.14
2023-03-12T04:53:49.477Z,19.15
2023-03-12T04:54:49.436Z,19.14
2023-03-12T04:55:49.470Z,19.14
2023-03-12T04:56:48.521Z,19.15
2023-03-12T04:57:49.544Z,19.16
2023-03-12T04:58:48.572Z,19.17
2023-03-12T04:59:49.600Z,19.16
2023-03-12T05:00:49.639Z,19.17
2023-03-12T05:01:49.690Z,19.16
2023-03-12T05:02:49.758Z,19.17
2023-03-12T05:03:49.747Z,19.17
2023-03-12T05:04:49.782Z,19.16
2023-03-12T05:05:48.854Z,19.16
2023-03-12T05:06:49.841Z,19.17
2023-03-12T05:07:49.881Z,19.17
2023-03-12T05:08:49.925Z,19.17
2023-03-12T05:09:49.955Z,19.18
2023-03-12T05:10:50.002Z,19.18
2023-03-12T05:11:50.044Z,19.17
2023-03-12T05:12:50.067Z,19.18
2023-03-12T05:13:50.095Z,19.18
2023-03-12T05:14:50.126Z,19.18
2023-03-12T05:15:50.137Z,19.18
2023-03-12T05:16:50.175Z,19.17
2023-03-12T05:17:50.220Z,19.18
2023-03-12T05:18:50.251Z,19.18
2023-03-12T05:19:50.282Z,19.18
2023-03-12T05:20:49.321Z,19.18
2023-03-12T05:21:50.372Z,19.18
2023-03-12T05:22:50.388Z,19.17
2023-03-12T05:23:50.423Z,19.18
2023-03-12T05:24:49.461Z,19.18
2023-03-12T05:25:50.503Z,19.17
2023-03-12T05:26:49.538Z,19.18
2023-03-12T05:27:50.587Z,19.17
2023-03-12T05:28:50.607Z,19.17
2023-03-12T05:29:50.649Z,19.17
2023-03-12T05:30:49.687Z,19.17
2023-03-12T05:31:49.786Z,19.17
2023-03-12T05:32:50.913Z,19.17
2023-03-12T05:33:52.795Z,19.18
2023-03-12T05:34:50.794Z,19.17
2023-03-12T05:35:50.858Z,19.18
2023-03-12T05:36:50.768Z,19.18
2023-03-12T05:37:50.794Z,19.17
2023-03-12T05:38:50.790Z,19.18
2023-03-12T05:39:50.774Z,19.17
2023-03-12T05:40:50.758Z,19.18
2023-03-12T05:41:50.763Z,19.18
2023-03-12T05:42:50.730Z,19.18
2023-03-12T05:43:50.729Z,19.18
2023-03-12T05:44:50.725Z,19.18
2023-03-12T05:45:50.783Z,19.19
2023-03-12T05:46:50.735Z,19.18
2023-03-12T05:47:50.701Z,19.18
2023-03-12T05:48:50.685Z,19.17
2023-03-12T05:49:50.716Z,19.17
2023-03-12T05:50:50.742Z,19.18
2023-03-12T05:51:50.663Z,19.18
2023-03-12T05:52:50.666Z,19.18
2023-03-12T05:53:50.689Z,19.18
2023-03-12T05:54:50.652Z,19.17
2023-03-12T05:55:49.639Z,19.18
2023-03-12T05:56:50.638Z,19.18
2023-03-12T05:57:50.619Z,19.18
2023-03-12T05:58:50.610Z,19.19
2023-03-12T05:59:50.615Z,19.19
2023-03-12T06:00:50.608Z,19.19
2023-03-12T06:01:50.657Z,19.19
2023-03-12T06:02:50.607Z,19.19
2023-03-12T06:03:50.577Z,19.19
2023-03-12T06:04:50.582Z,19.19
2023-03-12T06:05:50.563Z,19.20
2023-03-12T06:06:50.563Z,19.20
2023-03-12T06:07:49.550Z,19.20
2023-03-12T06:08:50.544Z,19.20
2023-03-12T06:09:49.574Z,19.21
2023-03-12T06:10:50.548Z,19.22
2023-03-12T06:11:50.588Z,19.23
2023-03-12T06:12:50.617Z,19.23
2023-03-12T06:13:50.646Z,19.23
2023-03-12T06:14:50.681Z,19.23
2023-03-12T06:15:50.703Z,19.24
2023-03-12T06:16:50.806Z,19.25
2023-03-12T06:17:50.803Z,19.25
2023-03-12T06:18:49.794Z,19.24
2023-03-12T06:19:50.829Z,19.25
2023-03-12T06:20:50.849Z,19.25
2023-03-12T06:21:50.890Z,19.25
2023-03-12T06:22:50.912Z,19.26
2023-03-12T06:23:49.941Z,19.26
2023-03-12T06:24:50.991Z,19.27
2023-03-12T06:25:51.025Z,19.27
2023-03-12T06:26:51.023Z,19.27
2023-03-12T06:27:51.054Z,19.27
2023-03-12T06:28:51.107Z,19.28
2023-03-12T06:29:50.127Z,19.28
2023-03-12T06:30:51.156Z,19.27
2023-03-12T06:31:51.280Z,19.27
2023-03-12T06:32:51.253Z,19.28
2023-03-12T06:33:51.233Z,19.28
2023-03-12T06:34:50.256Z,19.28
2023-03-12T06:35:51.368Z,19.28
2023-03-12T06:36:51.304Z,19.28
2023-03-12T06:37:51.343Z,19.28
2023-03-12T06:38:50.371Z,19.28
2023-03-12T06:39:51.401Z,19.29
2023-03-12T06:40:51.427Z,19.28
2023-03-12T06:41:51.476Z,19.29
2023-03-12T06:42:50.469Z,19.29
2023-03-12T06:43:50.512Z,19.30
2023-03-12T06:44:51.526Z,19.29
2023-03-12T06:45:51.554Z,19.29
2023-03-12T06:46:50.636Z,19.29
2023-03-12T06:47:51.636Z,19.29
2023-03-12T06:48:51.638Z,19.29
2023-03-12T06:49:51.658Z,19.29
2023-03-12T06:50:51.675Z,19.29
2023-03-12T06:51:51.690Z,19.29
2023-03-12T06:52:51.725Z,19.30
2023-03-12T06:53:51.740Z,19.30
2023-03-12T06:54:51.758Z,19.30
2023-03-12T06:55:51.773Z,19.31
2023-03-12T06:56:51.792Z,19.31
2023-03-12T06:57:50.815Z,19.31
2023-03-12T06:58:51.825Z,19.31
2023-03-12T06:59:51.826Z,19.32
2023-03-12T07:00:51.864Z,19.32
2023-03-12T07:01:50.937Z,19.32
2023-03-12T07:02:51.901Z,19.31
2023-03-12T07:03:51.917Z,19.33
2023-03-12T07:04:51.964Z,19.32
2023-03-12T07:05:50.935Z,19.32
2023-03-12T07:06:50.960Z,19.32
2023-03-12T07:07:51.985Z,19.33
2023-03-12T07:08:52.005Z,19.32
2023-03-12T07:09:52.018Z,19.32
2023-03-12T07:10:51.028Z,19.33
2023-03-12T07:11:52.057Z,19.33
2023-03-12T07:12:52.052Z,19.32
2023-03-12T07:13:52.108Z,19.33
2023-03-12T07:14:52.084Z,19.34
2023-03-12T07:15:52.225Z,19.33
2023-03-12T07:16:52.144Z,19.33
2023-03-12T07:17:51.140Z,19.33
2023-03-12T07:18:52.154Z,19.34
2023-03-12T07:19:52.147Z,19.35
2023-03-12T07:20:51.164Z,19.34
2023-03-12T07:21:52.182Z,19.34
2023-03-12T07:22:51.183Z,19.34
2023-03-12T07:23:52.193Z,19.35
2023-03-12T07:24:52.194Z,19.35
2023-03-12T07:25:52.209Z,19.34
2023-03-12T07:26:52.212Z,19.35
2023-03-12T07:27:52.221Z,19.35
2023-03-12T07:28:51.248Z,19.35
2023-03-12T07:29:52.264Z,19.35
2023-03-12T07:30:52.268Z,19.35
2023-03-12T07:31:52.286Z,19.36
2023-03-12T07:32:52.340Z,19.36
2023-03-12T07:33:52.434Z,19.35
2023-03-12T07:34:51.328Z,19.35
2023-03-12T07:35:52.493Z,19.35
2023-03-12T07:36:52.478Z,19.35
2023-03-12T07:37:52.406Z,19.35
2023-03-12T07:38:52.416Z,19.36
2023-03-12T07:39:52.522Z,19.36
2023-03-12T07:40:51.564Z,19.36
2023-03-12T07:41:52.493Z,19.36
2023-03-12T07:42:52.505Z,19.37
2023-03-12T07:43:52.573Z,19.38
2023-03-12T07:44:52.880Z,19.37
2023-03-12T07:45:52.557Z,19.37
2023-03-12T07:46:51.840Z,19.37
2023-03-12T07:47:51.886Z,19.38
2023-03-12T07:48:53.160Z,19.37
2023-03-12T07:49:52.667Z,19.37
2023-03-12T07:50:52.688Z,19.38
2023-03-12T07:51:51.707Z,19.39
2023-03-12T07:52:52.725Z,19.38
2023-03-12T07:53:52.723Z,19.39
2023-03-12T07:54:53.031Z,19.40
2023-03-12T07:55:52.415Z,19.40
2023-03-12T07:56:52.979Z,19.40
2023-03-12T07:57:52.825Z,19.40
2023-03-12T07:58:51.971Z,19.41
2023-03-12T07:59:52.924Z,19.41
2023-03-12T08:00:51.918Z,19.40
2023-03-12T08:01:53.044Z,19.40
2023-03-12T08:02:53.257Z,19.41
2023-03-12T08:03:52.983Z,19.41
2023-03-12T08:04:53.052Z,19.41
2023-03-12T08:05:52.036Z,19.41
2023-03-12T08:06:53.047Z,19.42
2023-03-12T08:07:53.045Z,19.42
2023-03-12T08:08:53.085Z,19.42
2023-03-12T08:09:53.133Z,19.43
2023-03-12T08:10:52.021Z,19.43
2023-03-12T08:11:53.110Z,19.43
2023-03-12T08:12:52.092Z,19.42
2023-03-12T08:13:52.080Z,19.43
2023-03-12T08:14:53.260Z,19.43
2023-03-12T08:15:52.863Z,19.42
2023-03-12T08:16:53.121Z,19.43
2023-03-12T08:17:53.159Z,19.43
2023-03-12T08:18:53.150Z,19.44
2023-03-12T08:19:52.167Z,19.43
2023-03-12T08:20:52.175Z,19.44
2023-03-12T08:21:52.189Z,19.44
2023-03-12T08:22:53.208Z,19.44
2023-03-12T08:23:53.229Z,19.44
2023-03-12T08:24:53.243Z,19.44
2023-03-12T08:25:53.257Z,19.44
2023-03-12T08:26:53.287Z,19.44
2023-03-12T08:27:53.341Z,19.45
2023-03-12T08:28:53.321Z,19.44
2023-03-12T08:29:52.340Z,19.44
2023-03-12T08:30:53.376Z,19.44
2023-03-12T08:32:04.041Z,19.43
2023-03-12T08:32:53.426Z,19.43
2023-03-12T08:33:52.383Z,19.44
2023-03-12T08:34:53.363Z,19.44
2023-03-12T08:35:52.378Z,19.44
2023-03-12T08:36:53.358Z,19.44
2023-03-12T08:37:53.340Z,19.45
2023-03-12T08:38:53.340Z,19.45
2023-03-12T08:39:53.329Z,19.45
2023-03-12T08:40:53.319Z,19.45
2023-03-12T08:41:53.309Z,19.45
2023-03-12T08:42:53.316Z,19.46
2023-03-12T08:43:53.290Z,19.46
2023-03-12T08:44:52.290Z,19.47
2023-03-12T08:45:53.360Z,19.47
2023-03-12T08:46:53.263Z,19.47
2023-03-12T08:47:52.269Z,19.47
2023-03-12T08:48:53.264Z,19.47
2023-03-12T08:49:53.294Z,19.48
2023-03-12T08:50:53.244Z,19.47
2023-03-12T08:51:53.231Z,19.47
2023-03-12T08:52:53.231Z,19.47
2023-03-12T08:53:53.231Z,19.48
2023-03-12T08:54:53.215Z,19.47
2023-03-12T08:55:53.206Z,19.47
2023-03-12T08:56:53.243Z,19.47
2023-03-12T08:57:53.190Z,19.47
2023-03-12T08:58:53.236Z,19.49
2023-03-12T08:59:53.175Z,19.49
2023-03-12T09:00:53.181Z,19.48
2023-03-12T09:01:53.169Z,19.49
2023-03-12T09:02:53.262Z,19.49
2023-03-12T09:03:53.155Z,19.49
2023-03-12T09:04:53.151Z,19.49
2023-03-12T09:05:52.163Z,19.49
2023-03-12T09:06:53.128Z,19.49
2023-03-12T09:07:53.121Z,19.49
2023-03-12T09:08:52.114Z,19.49
2023-03-12T09:09:53.107Z,19.49
2023-03-12T09:10:53.116Z,19.49
2023-03-12T09:11:53.098Z,19.50
2023-03-12T09:12:53.088Z,19.50
2023-03-12T09:14:22.472Z,19.50
2023-03-12T09:15:08.534Z,19.50
2023-03-12T09:15:53.110Z,19.50
2023-03-12T09:16:53.141Z,19.51
2023-03-12T09:17:53.038Z,19.51
2023-03-12T09:18:53.042Z,19.51
2023-03-12T09:19:52.042Z,19.50
2023-03-12T09:20:53.020Z,19.51
2023-03-12T09:21:53.032Z,19.51
2023-03-12T09:22:53.010Z,19.51
2023-03-12T09:23:52.991Z,19.51
2023-03-12T09:24:53.018Z,19.51
2023-03-12T09:25:52.980Z,19.51
2023-03-12T09:26:51.985Z,19.51
2023-03-12T09:27:52.970Z,19.50
2023-03-12T09:28:52.965Z,19.51
2023-03-12T09:30:00.050Z,19.50
2023-03-12T09:30:53.012Z,19.50
2023-03-12T09:31:52.988Z,19.50
2023-03-12T09:32:53.072Z,19.51
2023-03-12T09:33:52.933Z,19.51
2023-03-12T09:34:52.937Z,19.52
2023-03-12T09:35:52.974Z,19.52
2023-03-12T09:36:52.911Z,19.51
2023-03-12T09:37:52.930Z,19.51
2023-03-12T09:38:52.897Z,19.51
2023-03-12T09:39:52.888Z,19.52
2023-03-12T09:40:52.895Z,19.53
2023-03-12T09:41:52.855Z,19.52
2023-03-12T09:42:52.866Z,19.53
2023-03-12T09:43:51.865Z,19.52
2023-03-12T09:44:52.846Z,19.52
2023-03-12T09:45:52.869Z,19.52
2023-03-12T09:46:52.994Z,19.53
2023-03-12T09:47:51.825Z,19.52
2023-03-12T09:48:52.822Z,19.52
2023-03-12T09:49:52.818Z,19.52
2023-03-12T09:50:52.805Z,19.52
2023-03-12T09:51:51.794Z,19.53
2023-03-12T09:52:52.786Z,19.53
2023-03-12T09:53:52.794Z,19.53
2023-03-12T09:54:51.771Z,19.53
2023-03-12T09:55:52.781Z,19.54
2023-03-12T09:56:51.751Z,19.53
2023-03-12T09:57:52.779Z,19.53
2023-03-12T09:58:52.751Z,19.54
2023-03-12T09:59:52.749Z,19.54
2023-03-12T10:00:52.749Z,19.54
2023-03-12T10:01:51.714Z,19.55
2023-03-12T10:02:52.792Z,19.55
2023-03-12T10:03:52.703Z,19.56
2023-03-12T10:04:59.379Z,19.56
2023-03-12T10:05:52.713Z,19.55
2023-03-12T10:06:52.685Z,19.56
2023-03-12T10:07:51.678Z,19.57
2023-03-12T10:08:52.664Z,19.56
2023-03-12T10:09:52.692Z,19.56
2023-03-12T10:10:52.655Z,19.57
2023-03-12T10:11:52.652Z,19.57
2023-03-12T10:12:52.644Z,19.57
2023-03-12T10:13:52.643Z,19.57
2023-03-12T10:14:51.617Z,19.57
2023-03-12T10:15:52.050Z,19.57
2023-03-12T10:16:52.609Z,19.57
2023-03-12T10:17:52.706Z,19.57
2023-03-12T10:18:52.871Z,19.56
2023-03-12T10:19:51.579Z,19.56
2023-03-12T10:20:52.577Z,19.57
2023-03-12T10:21:52.578Z,19.58
2023-03-12T10:22:52.566Z,19.58
2023-03-12T10:23:52.572Z,19.59
2023-03-12T10:24:52.550Z,19.59
2023-03-12T10:25:52.583Z,19.58
2023-03-12T10:26:52.553Z,19.59
2023-03-12T10:27:52.538Z,19.59
2023-03-12T10:28:51.543Z,19.60
2023-03-12T10:29:51.520Z,19.60
2023-03-12T10:30:52.578Z,19.61
2023-03-12T10:31:52.433Z,19.61
2023-03-12T10:32:52.552Z,19.62
2023-03-12T10:33:52.542Z,19.62
2023-03-12T10:34:52.555Z,19.62
2023-03-12T10:35:52.672Z,19.62
2023-03-12T10:36:52.608Z,19.62
2023-03-12T10:37:52.618Z,19.62
2023-03-12T10:38:51.641Z,19.62
2023-03-12T10:39:51.671Z,19.63
2023-03-12T10:40:52.682Z,19.63
2023-03-12T10:41:52.725Z,19.63
2023-03-12T10:42:52.731Z,19.64
2023-03-12T10:43:51.732Z,19.64
2023-03-12T10:44:52.777Z,19.64
2023-03-12T10:45:52.781Z,19.64
2023-03-12T10:46:52.807Z,19.65
2023-03-12T10:47:52.807Z,19.65
2023-03-12T10:48:52.826Z,19.66
2023-03-12T10:49:52.864Z,19.65
2023-03-12T10:50:52.864Z,19.66
2023-03-12T10:51:51.949Z,19.66
2023-03-12T10:52:52.915Z,19.65
2023-03-12T10:53:52.929Z,19.66
2023-03-12T10:54:52.963Z,19.66
2023-03-12T10:55:51.976Z,19.67
2023-03-12T10:56:52.994Z,19.67
2023-03-12T10:57:53.032Z,19.67
2023-03-12T10:58:53.045Z,19.67
2023-03-12T10:59:53.031Z,19.68
2023-03-12T11:00:53.058Z,19.67
2023-03-12T11:01:53.276Z,19.68
2023-03-12T11:02:53.097Z,19.68
2023-03-12T11:03:53.129Z,19.68
2023-03-12T11:04:53.125Z,19.68
2023-03-12T11:05:53.168Z,19.68
2023-03-12T11:06:53.153Z,19.69
2023-03-12T11:07:53.186Z,19.69
2023-03-12T11:09:00.563Z,19.70
2023-03-12T11:09:53.165Z,19.69
2023-03-12T11:10:53.177Z,19.70
2023-03-12T11:11:53.159Z,19.70
2023-03-12T11:12:53.147Z,19.71
2023-03-12T11:13:53.188Z,19.71
2023-03-12T11:14:52.139Z,19.72
2023-03-12T11:15:53.148Z,19.72
2023-03-12T11:16:53.136Z,19.72
2023-03-12T11:17:53.122Z,19.73
2023-03-12T11:18:52.100Z,19.73
2023-03-12T11:19:53.090Z,19.73
2023-03-12T11:20:53.132Z,19.73
2023-03-12T11:21:52.079Z,19.73
2023-03-12T11:22:53.075Z,19.74
2023-03-12T11:23:53.057Z,19.73
2023-03-12T11:24:53.077Z,19.74
2023-03-12T11:25:53.056Z,19.74
2023-03-12T11:26:53.051Z,19.73
2023-03-12T11:27:52.033Z,19.74
2023-03-12T11:28:53.040Z,19.74
2023-03-12T11:29:53.043Z,19.74
2023-03-12T11:30:53.125Z,19.75
2023-03-12T11:31:53.124Z,19.74
2023-03-12T11:32:52.098Z,19.75
2023-03-12T11:33:51.993Z,19.74
2023-03-12T11:34:52.991Z,19.76
2023-03-12T11:35:52.057Z,19.76
2023-03-12T11:36:51.977Z,19.75
2023-03-12T11:37:52.978Z,19.76
2023-03-12T11:38:52.959Z,19.76
2023-03-12T11:39:52.976Z,19.76
2023-03-12T11:40:52.990Z,19.76
2023-03-12T11:41:52.916Z,19.77
2023-03-12T11:42:52.943Z,19.76
2023-03-12T11:43:52.981Z,19.77
2023-03-12T11:44:52.912Z,19.76
2023-03-12T11:45:51.921Z,19.77
2023-03-12T11:46:51.985Z,19.76
2023-03-12T11:47:52.946Z,19.77
2023-03-12T11:48:52.932Z,19.77
2023-03-12T11:49:52.867Z,19.77
2023-03-12T11:50:52.862Z,19.77
2023-03-12T11:51:52.867Z,19.77
2023-03-12T11:52:51.889Z,19.77
2023-03-12T11:53:52.851Z,19.77
2023-03-12T11:54:51.855Z,19.78
2023-03-12T11:55:52.837Z,19.77
2023-03-12T11:56:52.827Z,19.78
2023-03-12T11:57:52.845Z,19.77
2023-03-12T11:58:52.816Z,19.78
2023-03-12T11:59:52.805Z,19.77
2023-03-12T12:00:52.799Z,19.77
2023-03-12T12:01:52.855Z,19.77
2023-03-12T12:02:52.823Z,19.77
2023-03-12T12:03:52.794Z,19.77
2023-03-12T12:04:52.771Z,19.77
2023-03-12T12:05:52.771Z,19.78
2023-03-12T12:06:52.757Z,19.78
2023-03-12T12:07:52.749Z,19.78
2023-03-12T12:08:52.790Z,19.78
2023-03-12T12:09:51.723Z,19.78
2023-03-12T12:10:52.736Z,19.78
2023-03-12T12:11:52.715Z,19.79
2023-03-12T12:12:52.703Z,19.78
2023-03-12T12:13:51.692Z,19.79
2023-03-12T12:14:52.705Z,19.79
2023-03-12T12:15:51.688Z,19.79
2023-03-12T12:16:52.684Z,19.79
2023-03-12T12:17:52.702Z,19.79
2023-03-12T12:18:52.664Z,19.79
2023-03-12T12:19:52.664Z,19.79
2023-03-12T12:20:52.655Z,19.79
2023-03-12T12:21:52.650Z,19.79
2023-03-12T12:22:52.649Z,19.79
2023-03-12T12:23:52.636Z,19.79
2023-03-12T12:24:52.647Z,19.79
2023-03-12T12:25:52.622Z,19.79
2023-03-12T12:26:52.614Z,19.78
2023-03-12T12:27:51.618Z,19.78
2023-03-12T12:28:51.643Z,19.78
2023-03-12T12:29:51.651Z,19.78
2023-03-12T12:30:52.670Z,19.79
2023-03-12T12:31:51.809Z,19.79
2023-03-12T12:32:51.761Z,19.78
2023-03-12T12:33:52.713Z,19.78
2023-03-12T12:34:52.696Z,19.79
2023-03-12T12:35:51.701Z,19.79
2023-03-12T12:36:51.728Z,19.79
2023-03-12T12:37:52.729Z,19.78
2023-03-12T12:38:52.731Z,19.78
2023-03-12T12:39:52.775Z,19.79
2023-03-12T12:40:51.733Z,19.78
2023-03-12T12:41:52.753Z,19.79
2023-03-12T12:42:51.778Z,19.79
2023-03-12T12:43:52.777Z,19.77
2023-03-12T12:44:52.803Z,19.77
2023-03-12T12:45:52.930Z,19.77
2023-03-12T12:46:52.819Z,19.78
2023-03-12T12:47:52.842Z,19.78
2023-03-12T12:48:52.840Z,19.77
2023-03-12T12:49:52.877Z,19.77
2023-03-12T12:50:51.866Z,19.77
2023-03-12T12:51:51.881Z,19.77
2023-03-12T12:52:52.884Z,19.77